sensor_id;sensor_type;location;lat;lon;timestamp;P1;durP1;ratioP1;P2;durP2;ratioP2
48552;SDS011;34335;51.566;6.994;2023-02-19T00:00:26;12.93;;;6.43;;
48552;SDS011;34335;51.566;6.994;2023-02-19T00:02:52;9.05;;;5.55;;
48552;SDS011;34335;51.566;6.994;2023-02-19T00:05:17;7.72;;;4.03;;
48552;SDS011;34335;51.566;6.994;2023-02-19T00:07:42;7.57;;;4.40;;
48552;SDS011;34335;51.566;6.994;2023-02-19T00:10:08;7.67;;;3.43;;
48552;SDS011;34335;51.566;6.994;2023-02-19T00:12:33;8.25;;;4.07;;
48552;SDS011;34335;51.566;6.994;2023-02-19T00:14:58;12.98;;;4.95;;
48552;SDS011;34335;51.566;6.994;2023-02-19T00:17:24;12.15;;;6.00;;
48552;SDS011;34335;51.566;6.994;2023-02-19T00:19:49;7.43;;;4.40;;
48552;SDS011;34335;51.566;6.994;2023-02-19T00:22:14;9.68;;;4.95;;
48552;SDS011;34335;51.566;6.994;2023-02-19T00:24:39;5.07;;;3.10;;
48552;SDS011;34335;51.566;6.994;2023-02-19T00:27:05;11.00;;;5.53;;
48552;SDS011;34335;51.566;6.994;2023-02-19T00:29:30;10.83;;;4.90;;
48552;SDS011;34335;51.566;6.994;2023-02-19T00:31:55;6.22;;;3.03;;
48552;SDS011;34335;51.566;6.994;2023-02-19T00:34:21;12.77;;;5.40;;
48552;SDS011;34335;51.566;6.994;2023-02-19T00:36:46;8.65;;;4.72;;
48552;SDS011;34335;51.566;6.994;2023-02-19T00:39:12;13.13;;;6.45;;
48552;SDS011;34335;51.566;6.994;2023-02-19T00:41:39;13.13;;;5.50;;
48552;SDS011;34335;51.566;6.994;2023-02-19T00:44:06;13.18;;;5.90;;
48552;SDS011;34335;51.566;6.994;2023-02-19T00:46:36;9.43;;;6.05;;
48552;SDS011;34335;51.566;6.994;2023-02-19T00:49:04;11.45;;;5.32;;
48552;SDS011;34335;51.566;6.994;2023-02-19T00:51:31;4.72;;;1.92;;
48552;SDS011;34335;51.566;6.994;2023-02-19T00:53:58;14.00;;;6.10;;
48552;SDS011;34335;51.566;6.994;2023-02-19T00:56:24;10.70;;;4.38;;
48552;SDS011;34335;51.566;6.994;2023-02-19T00:58:50;11.18;;;4.55;;
48552;SDS011;34335;51.566;6.994;2023-02-19T01:01:15;9.40;;;4.85;;
48552;SDS011;34335;51.566;6.994;2023-02-19T01:03:41;8.55;;;5.43;;
48552;SDS011;34335;51.566;6.994;2023-02-19T01:06:07;11.70;;;4.75;;
48552;SDS011;34335;51.566;6.994;2023-02-19T01:08:33;8.48;;;4.93;;
48552;SDS011;34335;51.566;6.994;2023-02-19T01:10:59;6.20;;;3.88;;
48552;SDS011;34335;51.566;6.994;2023-02-19T01:13:25;11.52;;;5.63;;
48552;SDS011;34335;51.566;6.994;2023-02-19T01:15:50;7.10;;;3.80;;
48552;SDS011;34335;51.566;6.994;2023-02-19T01:18:16;9.60;;;4.00;;
48552;SDS011;34335;51.566;6.994;2023-02-19T01:20:42;3.58;;;1.52;;
48552;SDS011;34335;51.566;6.994;2023-02-19T01:23:09;8.25;;;4.13;;
48552;SDS011;34335;51.566;6.994;2023-02-19T01:25:39;10.10;;;4.78;;
48552;SDS011;34335;51.566;6.994;2023-02-19T01:28:06;6.50;;;3.17;;
48552;SDS011;34335;51.566;6.994;2023-02-19T01:30:35;6.82;;;3.58;;
48552;SDS011;34335;51.566;6.994;2023-02-19T01:33:05;9.60;;;4.68;;
48552;SDS011;34335;51.566;6.994;2023-02-19T01:35:31;8.88;;;4.05;;
48552;SDS011;34335;51.566;6.994;2023-02-19T01:37:56;12.10;;;3.88;;
48552;SDS011;34335;51.566;6.994;2023-02-19T01:40:22;8.90;;;4.20;;
48552;SDS011;34335;51.566;6.994;2023-02-19T01:42:48;10.13;;;5.53;;
48552;SDS011;34335;51.566;6.994;2023-02-19T01:45:21;6.45;;;3.50;;
48552;SDS011;34335;51.566;6.994;2023-02-19T01:50:18;8.10;;;4.10;;
48552;SDS011;34335;51.566;6.994;2023-02-19T01:52:44;6.40;;;2.92;;
48552;SDS011;34335;51.566;6.994;2023-02-19T01:55:10;8.70;;;4.40;;
48552;SDS011;34335;51.566;6.994;2023-02-19T01:57:38;10.10;;;3.60;;
48552;SDS011;34335;51.566;6.994;2023-02-19T02:00:09;8.07;;;3.75;;
48552;SDS011;34335;51.566;6.994;2023-02-19T02:02:38;9.70;;;3.50;;
48552;SDS011;34335;51.566;6.994;2023-02-19T02:05:07;8.13;;;4.03;;
48552;SDS011;34335;51.566;6.994;2023-02-19T02:07:38;6.45;;;2.80;;
48552;SDS011;34335;51.566;6.994;2023-02-19T02:10:22;7.93;;;4.05;;
48552;SDS011;34335;51.566;6.994;2023-02-19T02:12:48;11.02;;;4.50;;
48552;SDS011;34335;51.566;6.994;2023-02-19T02:15:15;6.10;;;3.15;;
48552;SDS011;34335;51.566;6.994;2023-02-19T02:20:31;6.38;;;3.80;;
48552;SDS011;34335;51.566;6.994;2023-02-19T02:31:47;11.70;;;5.15;;
48552;SDS011;34335;51.566;6.994;2023-02-19T02:34:40;14.15;;;4.55;;
48552;SDS011;34335;51.566;6.994;2023-02-19T02:37:09;14.07;;;5.10;;
48552;SDS011;34335;51.566;6.994;2023-02-19T02:39:36;5.32;;;3.25;;
48552;SDS011;34335;51.566;6.994;2023-02-19T02:42:02;7.45;;;4.32;;
48552;SDS011;34335;51.566;6.994;2023-02-19T02:44:46;12.95;;;4.68;;
48552;SDS011;34335;51.566;6.994;2023-02-19T02:47:32;8.68;;;4.20;;
48552;SDS011;34335;51.566;6.994;2023-02-19T02:50:25;13.25;;;5.35;;
48552;SDS011;34335;51.566;6.994;2023-02-19T02:52:55;8.40;;;3.95;;
48552;SDS011;34335;51.566;6.994;2023-02-19T02:55:44;14.63;;;4.28;;
48552;SDS011;34335;51.566;6.994;2023-02-19T02:58:13;8.55;;;4.00;;
48552;SDS011;34335;51.566;6.994;2023-02-19T03:00:41;13.35;;;5.28;;
48552;SDS011;34335;51.566;6.994;2023-02-19T06:44:34;4.82;;;1.92;;
48552;SDS011;34335;51.566;6.994;2023-02-19T06:47:00;5.30;;;2.20;;
48552;SDS011;34335;51.566;6.994;2023-02-19T06:49:25;8.18;;;1.98;;
48552;SDS011;34335;51.566;6.994;2023-02-19T06:51:50;9.13;;;2.85;;
48552;SDS011;34335;51.566;6.994;2023-02-19T06:54:16;3.77;;;1.70;;
48552;SDS011;34335;51.566;6.994;2023-02-19T06:56:41;9.93;;;2.60;;
48552;SDS011;34335;51.566;6.994;2023-02-19T06:59:11;2.75;;;1.20;;
48552;SDS011;34335;51.566;6.994;2023-02-19T07:01:38;8.05;;;2.50;;
48552;SDS011;34335;51.566;6.994;2023-02-19T07:04:04;4.72;;;2.53;;
48552;SDS011;34335;51.566;6.994;2023-02-19T07:06:31;4.10;;;2.00;;
48552;SDS011;34335;51.566;6.994;2023-02-19T07:08:57;7.78;;;2.17;;
48552;SDS011;34335;51.566;6.994;2023-02-19T07:11:23;9.48;;;2.60;;
48552;SDS011;34335;51.566;6.994;2023-02-19T07:13:55;3.78;;;2.03;;
48552;SDS011;34335;51.566;6.994;2023-02-19T07:16:22;6.00;;;2.58;;
48552;SDS011;34335;51.566;6.994;2023-02-19T07:18:47;8.30;;;2.95;;
48552;SDS011;34335;51.566;6.994;2023-02-19T07:21:13;3.88;;;1.95;;
48552;SDS011;34335;51.566;6.994;2023-02-19T07:23:40;4.28;;;2.00;;
48552;SDS011;34335;51.566;6.994;2023-02-19T07:26:10;2.85;;;1.52;;
48552;SDS011;34335;51.566;6.994;2023-02-19T07:28:37;3.80;;;2.22;;
48552;SDS011;34335;51.566;6.994;2023-02-19T07:31:04;7.72;;;2.63;;
48552;SDS011;34335;51.566;6.994;2023-02-19T07:33:29;2.80;;;1.98;;
48552;SDS011;34335;51.566;6.994;2023-02-19T07:35:54;5.90;;;2.17;;
48552;SDS011;34335;51.566;6.994;2023-02-19T07:38:20;6.97;;;2.88;;
48552;SDS011;34335;51.566;6.994;2023-02-19T07:40:50;7.93;;;2.88;;
48552;SDS011;34335;51.566;6.994;2023-02-19T07:43:20;7.82;;;2.90;;
48552;SDS011;34335;51.566;6.994;2023-02-19T07:45:46;3.85;;;2.40;;
48552;SDS011;34335;51.566;6.994;2023-02-19T07:48:12;6.63;;;2.38;;
48552;SDS011;34335;51.566;6.994;2023-02-19T07:50:37;9.82;;;2.33;;
48552;SDS011;34335;51.566;6.994;2023-02-19T07:53:03;2.58;;;1.60;;
48552;SDS011;34335;51.566;6.994;2023-02-19T07:55:29;8.35;;;2.28;;
48552;SDS011;34335;51.566;6.994;2023-02-19T07:57:56;4.78;;;2.13;;
48552;SDS011;34335;51.566;6.994;2023-02-19T08:00:22;7.32;;;2.72;;
48552;SDS011;34335;51.566;6.994;2023-02-19T08:02:47;4.10;;;2.10;;
48552;SDS011;34335;51.566;6.994;2023-02-19T08:05:31;5.00;;;2.50;;
48552;SDS011;34335;51.566;6.994;2023-02-19T08:08:01;4.47;;;1.92;;
48552;SDS011;34335;51.566;6.994;2023-02-19T08:10:29;7.28;;;2.90;;
48552;SDS011;34335;51.566;6.994;2023-02-19T08:13:14;5.90;;;1.85;;
48552;SDS011;34335;51.566;6.994;2023-02-19T08:15:53;8.18;;;2.30;;
48552;SDS011;34335;51.566;6.994;2023-02-19T08:18:21;5.85;;;2.55;;
48552;SDS011;34335;51.566;6.994;2023-02-19T08:20:48;5.07;;;2.28;;
48552;SDS011;34335;51.566;6.994;2023-02-19T08:23:14;7.18;;;2.38;;
48552;SDS011;34335;51.566;6.994;2023-02-19T08:25:40;4.53;;;1.80;;
48552;SDS011;34335;51.566;6.994;2023-02-19T08:28:07;4.65;;;1.90;;
48552;SDS011;34335;51.566;6.994;2023-02-19T08:30:34;4.40;;;1.65;;
48552;SDS011;34335;51.566;6.994;2023-02-19T08:33:00;3.90;;;2.38;;
48552;SDS011;34335;51.566;6.994;2023-02-19T08:35:27;4.40;;;2.50;;
48552;SDS011;34335;51.566;6.994;2023-02-19T08:37:56;4.63;;;2.13;;
48552;SDS011;34335;51.566;6.994;2023-02-19T08:40:22;6.25;;;2.38;;
48552;SDS011;34335;51.566;6.994;2023-02-19T08:42:49;7.10;;;2.70;;
48552;SDS011;34335;51.566;6.994;2023-02-19T08:45:14;3.40;;;1.08;;
48552;SDS011;34335;51.566;6.994;2023-02-19T08:47:39;7.75;;;2.00;;
48552;SDS011;34335;51.566;6.994;2023-02-19T08:50:05;5.45;;;2.17;;
48552;SDS011;34335;51.566;6.994;2023-02-19T08:52:31;5.75;;;2.35;;
48552;SDS011;34335;51.566;6.994;2023-02-19T08:54:57;6.15;;;2.58;;
48552;SDS011;34335;51.566;6.994;2023-02-19T08:57:23;6.00;;;1.73;;
48552;SDS011;34335;51.566;6.994;2023-02-19T08:59:49;3.30;;;1.80;;
48552;SDS011;34335;51.566;6.994;2023-02-19T09:02:14;3.22;;;1.38;;
48552;SDS011;34335;51.566;6.994;2023-02-19T09:04:39;6.47;;;1.77;;
48552;SDS011;34335;51.566;6.994;2023-02-19T09:07:05;3.97;;;1.98;;
48552;SDS011;34335;51.566;6.994;2023-02-19T09:09:32;11.82;;;2.20;;
48552;SDS011;34335;51.566;6.994;2023-02-19T09:12:00;2.63;;;1.52;;
48552;SDS011;34335;51.566;6.994;2023-02-19T09:14:25;3.83;;;2.30;;
48552;SDS011;34335;51.566;6.994;2023-02-19T09:16:50;4.18;;;1.98;;
48552;SDS011;34335;51.566;6.994;2023-02-19T09:19:16;4.93;;;2.03;;
48552;SDS011;34335;51.566;6.994;2023-02-19T09:21:41;11.77;;;2.30;;
48552;SDS011;34335;51.566;6.994;2023-02-19T09:24:07;4.95;;;1.80;;
48552;SDS011;34335;51.566;6.994;2023-02-19T09:26:33;5.22;;;2.08;;
48552;SDS011;34335;51.566;6.994;2023-02-19T09:28:59;3.97;;;2.13;;
48552;SDS011;34335;51.566;6.994;2023-02-19T09:31:24;5.90;;;1.65;;
48552;SDS011;34335;51.566;6.994;2023-02-19T09:33:49;9.55;;;2.50;;
48552;SDS011;34335;51.566;6.994;2023-02-19T09:36:15;2.38;;;1.40;;
48552;SDS011;34335;51.566;6.994;2023-02-19T09:38:42;4.05;;;1.80;;
48552;SDS011;34335;51.566;6.994;2023-02-19T09:41:12;3.85;;;1.67;;
48552;SDS011;34335;51.566;6.994;2023-02-19T09:43:46;3.05;;;1.40;;
48552;SDS011;34335;51.566;6.994;2023-02-19T09:46:29;3.95;;;2.08;;
48552;SDS011;34335;51.566;6.994;2023-02-19T09:48:59;7.05;;;1.95;;
48552;SDS011;34335;51.566;6.994;2023-02-19T09:51:29;3.13;;;1.75;;
48552;SDS011;34335;51.566;6.994;2023-02-19T09:53:56;2.85;;;1.27;;
48552;SDS011;34335;51.566;6.994;2023-02-19T09:56:23;4.55;;;1.85;;
48552;SDS011;34335;51.566;6.994;2023-02-19T09:58:51;5.00;;;2.58;;
48552;SDS011;34335;51.566;6.994;2023-02-19T10:01:18;5.85;;;1.88;;
48552;SDS011;34335;51.566;6.994;2023-02-19T10:03:45;4.07;;;1.70;;
48552;SDS011;34335;51.566;6.994;2023-02-19T10:08:47;5.60;;;1.65;;
48552;SDS011;34335;51.566;6.994;2023-02-19T10:11:15;2.63;;;1.20;;
48552;SDS011;34335;51.566;6.994;2023-02-19T10:16:11;4.78;;;1.73;;
48552;SDS011;34335;51.566;6.994;2023-02-19T10:18:42;5.07;;;2.10;;
48552;SDS011;34335;51.566;6.994;2023-02-19T10:21:16;3.13;;;1.98;;
48552;SDS011;34335;51.566;6.994;2023-02-19T10:23:44;3.70;;;2.05;;
48552;SDS011;34335;51.566;6.994;2023-02-19T10:26:12;4.95;;;1.80;;
48552;SDS011;34335;51.566;6.994;2023-02-19T10:28:38;2.83;;;1.27;;
48552;SDS011;34335;51.566;6.994;2023-02-19T10:31:04;3.60;;;1.42;;
48552;SDS011;34335;51.566;6.994;2023-02-19T10:33:48;3.42;;;2.25;;
48552;SDS011;34335;51.566;6.994;2023-02-19T10:36:35;1.35;;;0.90;;
48552;SDS011;34335;51.566;6.994;2023-02-19T10:39:06;3.30;;;1.88;;
48552;SDS011;34335;51.566;6.994;2023-02-19T10:41:53;5.93;;;1.98;;
48552;SDS011;34335;51.566;6.994;2023-02-19T10:44:23;5.13;;;2.38;;
48552;SDS011;34335;51.566;6.994;2023-02-19T10:46:52;5.00;;;2.33;;
48552;SDS011;34335;51.566;6.994;2023-02-19T10:49:23;3.90;;;1.77;;
48552;SDS011;34335;51.566;6.994;2023-02-19T10:51:52;2.53;;;1.65;;
48552;SDS011;34335;51.566;6.994;2023-02-19T10:54:23;7.43;;;1.85;;
48552;SDS011;34335;51.566;6.994;2023-02-19T10:56:50;2.70;;;1.52;;
48552;SDS011;34335;51.566;6.994;2023-02-19T10:59:28;3.55;;;1.65;;
48552;SDS011;34335;51.566;6.994;2023-02-19T11:02:00;5.55;;;1.60;;
48552;SDS011;34335;51.566;6.994;2023-02-19T11:04:31;5.30;;;2.45;;
48552;SDS011;34335;51.566;6.994;2023-02-19T11:07:14;3.83;;;1.25;;
48552;SDS011;34335;51.566;6.994;2023-02-19T11:09:42;3.20;;;1.63;;
48552;SDS011;34335;51.566;6.994;2023-02-19T11:12:10;2.42;;;1.27;;
48552;SDS011;34335;51.566;6.994;2023-02-19T11:14:40;3.28;;;1.50;;
48552;SDS011;34335;51.566;6.994;2023-02-19T11:17:15;3.72;;;1.83;;
48552;SDS011;34335;51.566;6.994;2023-02-19T11:20:05;4.05;;;1.50;;
48552;SDS011;34335;51.566;6.994;2023-02-19T11:22:41;3.25;;;1.75;;
48552;SDS011;34335;51.566;6.994;2023-02-19T11:30:42;2.85;;;1.25;;
48552;SDS011;34335;51.566;6.994;2023-02-19T11:35:37;2.85;;;1.42;;
48552;SDS011;34335;51.566;6.994;2023-02-19T11:38:06;3.15;;;1.15;;
48552;SDS011;34335;51.566;6.994;2023-02-19T11:40:44;0.57;;;0.57;;
48552;SDS011;34335;51.566;6.994;2023-02-19T11:43:38;5.03;;;1.73;;
48552;SDS011;34335;51.566;6.994;2023-02-19T11:46:31;5.00;;;1.13;;
48552;SDS011;34335;51.566;6.994;2023-02-19T11:51:57;4.50;;;1.88;;
48552;SDS011;34335;51.566;6.994;2023-02-19T11:54:35;3.50;;;1.23;;
48552;SDS011;34335;51.566;6.994;2023-02-19T12:00:17;2.17;;;0.85;;
48552;SDS011;34335;51.566;6.994;2023-02-19T12:05:47;2.25;;;1.08;;
48552;SDS011;34335;51.566;6.994;2023-02-19T12:08:32;1.15;;;0.52;;
48552;SDS011;34335;51.566;6.994;2023-02-19T12:11:32;6.05;;;0.90;;
48552;SDS011;34335;51.566;6.994;2023-02-19T12:22:26;3.75;;;1.42;;
48552;SDS011;34335;51.566;6.994;2023-02-19T12:28:03;1.50;;;0.63;;
48552;SDS011;34335;51.566;6.994;2023-02-19T12:30:41;5.88;;;0.73;;
48552;SDS011;34335;51.566;6.994;2023-02-19T12:33:14;0.65;;;0.40;;
48552;SDS011;34335;51.566;6.994;2023-02-19T12:41:46;1.02;;;0.60;;
48552;SDS011;34335;51.566;6.994;2023-02-19T12:44:21;1.48;;;0.80;;
48552;SDS011;34335;51.566;6.994;2023-02-19T12:46:58;0.73;;;0.50;;
48552;SDS011;34335;51.566;6.994;2023-02-19T12:52:15;1.27;;;0.80;;
48552;SDS011;34335;51.566;6.994;2023-02-19T12:54:46;2.30;;;1.20;;
48552;SDS011;34335;51.566;6.994;2023-02-19T12:57:21;2.88;;;0.80;;
48552;SDS011;34335;51.566;6.994;2023-02-19T13:02:39;4.05;;;1.40;;
48552;SDS011;34335;51.566;6.994;2023-02-19T13:05:19;2.88;;;1.33;;
48552;SDS011;34335;51.566;6.994;2023-02-19T13:10:35;3.95;;;1.40;;
48552;SDS011;34335;51.566;6.994;2023-02-19T13:13:09;5.18;;;1.65;;
48552;SDS011;34335;51.566;6.994;2023-02-19T13:15:44;2.45;;;1.05;;
48552;SDS011;34335;51.566;6.994;2023-02-19T13:18:21;2.30;;;1.03;;
48552;SDS011;34335;51.566;6.994;2023-02-19T13:20:50;3.17;;;1.52;;
48552;SDS011;34335;51.566;6.994;2023-02-19T13:26:22;2.58;;;0.93;;
48552;SDS011;34335;51.566;6.994;2023-02-19T13:37:08;1.73;;;0.70;;
48552;SDS011;34335;51.566;6.994;2023-02-19T13:39:35;2.28;;;0.75;;
48552;SDS011;34335;51.566;6.994;2023-02-19T13:42:01;5.18;;;1.27;;
48552;SDS011;34335;51.566;6.994;2023-02-19T13:44:27;1.98;;;0.70;;
48552;SDS011;34335;51.566;6.994;2023-02-19T13:46:55;2.15;;;1.10;;
48552;SDS011;34335;51.566;6.994;2023-02-19T13:54:31;1.98;;;1.10;;
48552;SDS011;34335;51.566;6.994;2023-02-19T13:57:22;1.75;;;0.95;;
48552;SDS011;34335;51.566;6.994;2023-02-19T13:59:52;3.35;;;0.98;;
48552;SDS011;34335;51.566;6.994;2023-02-19T14:28:00;1.38;;;0.90;;
48552;SDS011;34335;51.566;6.994;2023-02-19T14:30:28;1.83;;;1.02;;
48552;SDS011;34335;51.566;6.994;2023-02-19T14:32:55;3.55;;;1.70;;
48552;SDS011;34335;51.566;6.994;2023-02-19T14:35:24;1.92;;;0.80;;
48552;SDS011;34335;51.566;6.994;2023-02-19T14:37:51;3.80;;;1.60;;
48552;SDS011;34335;51.566;6.994;2023-02-19T14:40:25;1.92;;;1.05;;
48552;SDS011;34335;51.566;6.994;2023-02-19T14:42:54;2.60;;;1.38;;
48552;SDS011;34335;51.566;6.994;2023-02-19T14:45:22;3.35;;;1.10;;
48552;SDS011;34335;51.566;6.994;2023-02-19T14:47:48;2.25;;;0.93;;
48552;SDS011;34335;51.566;6.994;2023-02-19T14:50:26;3.15;;;1.02;;
48552;SDS011;34335;51.566;6.994;2023-02-19T14:52:55;1.90;;;1.20;;
48552;SDS011;34335;51.566;6.994;2023-02-19T14:57:53;1.00;;;0.65;;
48552;SDS011;34335;51.566;6.994;2023-02-19T15:02:50;3.03;;;1.25;;
48552;SDS011;34335;51.566;6.994;2023-02-19T15:05:22;1.95;;;1.10;;
48552;SDS011;34335;51.566;6.994;2023-02-19T15:07:49;2.40;;;0.73;;
48552;SDS011;34335;51.566;6.994;2023-02-19T15:10:17;2.72;;;1.10;;
48552;SDS011;34335;51.566;6.994;2023-02-19T15:15:16;3.78;;;0.95;;
48552;SDS011;34335;51.566;6.994;2023-02-19T15:17:45;1.70;;;0.85;;
48552;SDS011;34335;51.566;6.994;2023-02-19T15:20:14;3.33;;;0.95;;
48552;SDS011;34335;51.566;6.994;2023-02-19T15:22:43;3.63;;;1.42;;
48552;SDS011;34335;51.566;6.994;2023-02-19T15:25:13;4.03;;;1.75;;
48552;SDS011;34335;51.566;6.994;2023-02-19T15:27:44;2.88;;;1.50;;
48552;SDS011;34335;51.566;6.994;2023-02-19T15:30:23;2.20;;;0.93;;
48552;SDS011;34335;51.566;6.994;2023-02-19T15:32:52;2.42;;;1.45;;
48552;SDS011;34335;51.566;6.994;2023-02-19T15:35:19;4.70;;;1.88;;
48552;SDS011;34335;51.566;6.994;2023-02-19T15:37:46;5.55;;;2.20;;
48552;SDS011;34335;51.566;6.994;2023-02-19T15:40:13;3.20;;;1.70;;
48552;SDS011;34335;51.566;6.994;2023-02-19T15:42:42;3.40;;;2.00;;
48552;SDS011;34335;51.566;6.994;2023-02-19T15:47:48;2.58;;;1.67;;
48552;SDS011;34335;51.566;6.994;2023-02-19T15:50:28;4.18;;;1.95;;
48552;SDS011;34335;51.566;6.994;2023-02-19T15:52:57;4.72;;;2.17;;
48552;SDS011;34335;51.566;6.994;2023-02-19T15:55:44;3.28;;;1.23;;
48552;SDS011;34335;51.566;6.994;2023-02-19T16:01:02;3.20;;;1.73;;
48552;SDS011;34335;51.566;6.994;2023-02-19T16:03:32;2.30;;;1.10;;
48552;SDS011;34335;51.566;6.994;2023-02-19T16:06:03;2.67;;;1.15;;
48552;SDS011;34335;51.566;6.994;2023-02-19T16:08:35;3.22;;;1.45;;
48552;SDS011;34335;51.566;6.994;2023-02-19T16:11:03;3.03;;;2.25;;
48552;SDS011;34335;51.566;6.994;2023-02-19T16:13:32;3.35;;;1.25;;
48552;SDS011;34335;51.566;6.994;2023-02-19T16:18:45;2.50;;;0.85;;
48552;SDS011;34335;51.566;6.994;2023-02-19T16:21:13;2.42;;;1.10;;
48552;SDS011;34335;51.566;6.994;2023-02-19T16:23:41;1.52;;;0.82;;
48552;SDS011;34335;51.566;6.994;2023-02-19T16:26:08;0.95;;;0.70;;
48552;SDS011;34335;51.566;6.994;2023-02-19T16:28:37;1.98;;;1.10;;
48552;SDS011;34335;51.566;6.994;2023-02-19T16:31:06;2.80;;;1.17;;
48552;SDS011;34335;51.566;6.994;2023-02-19T16:41:30;1.05;;;0.52;;
48552;SDS011;34335;51.566;6.994;2023-02-19T16:43:56;1.50;;;0.88;;
48552;SDS011;34335;51.566;6.994;2023-02-19T16:46:22;1.52;;;0.98;;
48552;SDS011;34335;51.566;6.994;2023-02-19T16:48:47;4.13;;;1.38;;
48552;SDS011;34335;51.566;6.994;2023-02-19T16:51:16;2.83;;;1.10;;
48552;SDS011;34335;51.566;6.994;2023-02-19T16:53:48;1.40;;;1.10;;
48552;SDS011;34335;51.566;6.994;2023-02-19T16:56:14;1.25;;;0.80;;
48552;SDS011;34335;51.566;6.994;2023-02-19T16:58:42;1.85;;;1.05;;
48552;SDS011;34335;51.566;6.994;2023-02-19T17:01:08;2.35;;;1.30;;
48552;SDS011;34335;51.566;6.994;2023-02-19T17:03:33;2.30;;;1.13;;
48552;SDS011;34335;51.566;6.994;2023-02-19T17:06:02;2.92;;;1.25;;
48552;SDS011;34335;51.566;6.994;2023-02-19T17:08:29;3.20;;;1.38;;
48552;SDS011;34335;51.566;6.994;2023-02-19T17:10:58;3.63;;;1.67;;
48552;SDS011;34335;51.566;6.994;2023-02-19T17:13:24;3.47;;;1.35;;
48552;SDS011;34335;51.566;6.994;2023-02-19T17:15:50;1.40;;;0.90;;
48552;SDS011;34335;51.566;6.994;2023-02-19T17:18:15;3.07;;;2.13;;
48552;SDS011;34335;51.566;6.994;2023-02-19T17:20:40;2.63;;;1.17;;
48552;SDS011;34335;51.566;6.994;2023-02-19T17:23:09;4.13;;;2.00;;
48552;SDS011;34335;51.566;6.994;2023-02-19T17:25:34;2.88;;;1.20;;
48552;SDS011;34335;51.566;6.994;2023-02-19T17:28:00;6.10;;;2.40;;
48552;SDS011;34335;51.566;6.994;2023-02-19T17:30:26;5.78;;;2.05;;
48552;SDS011;34335;51.566;6.994;2023-02-19T17:32:52;2.33;;;1.27;;
48552;SDS011;34335;51.566;6.994;2023-02-19T17:35:18;2.90;;;1.48;;
48552;SDS011;34335;51.566;6.994;2023-02-19T17:37:43;4.65;;;2.13;;
48552;SDS011;34335;51.566;6.994;2023-02-19T17:40:28;5.85;;;1.83;;
48552;SDS011;34335;51.566;6.994;2023-02-19T17:42:55;5.63;;;2.25;;
48552;SDS011;34335;51.566;6.994;2023-02-19T17:45:21;3.75;;;1.20;;
48552;SDS011;34335;51.566;6.994;2023-02-19T17:47:47;5.63;;;2.10;;
48552;SDS011;34335;51.566;6.994;2023-02-19T17:50:13;5.28;;;1.73;;
48552;SDS011;34335;51.566;6.994;2023-02-19T17:52:41;4.13;;;1.80;;
48552;SDS011;34335;51.566;6.994;2023-02-19T17:55:06;2.70;;;1.50;;
48552;SDS011;34335;51.566;6.994;2023-02-19T17:57:32;4.20;;;1.75;;
48552;SDS011;34335;51.566;6.994;2023-02-19T17:59:58;3.10;;;1.50;;
48552;SDS011;34335;51.566;6.994;2023-02-19T18:02:24;5.07;;;1.77;;
48552;SDS011;34335;51.566;6.994;2023-02-19T18:04:49;3.50;;;1.60;;
48552;SDS011;34335;51.566;6.994;2023-02-19T18:07:15;4.57;;;1.93;;
48552;SDS011;34335;51.566;6.994;2023-02-19T18:09:40;5.03;;;2.00;;
48552;SDS011;34335;51.566;6.994;2023-02-19T18:12:05;5.20;;;1.90;;
48552;SDS011;34335;51.566;6.994;2023-02-19T18:14:31;3.95;;;1.70;;
48552;SDS011;34335;51.566;6.994;2023-02-19T18:16:56;3.95;;;1.98;;
48552;SDS011;34335;51.566;6.994;2023-02-19T18:19:22;6.90;;;2.22;;
48552;SDS011;34335;51.566;6.994;2023-02-19T18:21:47;1.80;;;0.83;;
48552;SDS011;34335;51.566;6.994;2023-02-19T18:24:12;2.10;;;1.05;;
48552;SDS011;34335;51.566;6.994;2023-02-19T18:26:38;2.15;;;0.73;;
48552;SDS011;34335;51.566;6.994;2023-02-19T18:29:04;0.50;;;0.35;;
48552;SDS011;34335;51.566;6.994;2023-02-19T18:31:32;2.53;;;0.47;;
48552;SDS011;34335;51.566;6.994;2023-02-19T18:33:58;1.58;;;0.80;;
48552;SDS011;34335;51.566;6.994;2023-02-19T18:36:23;2.25;;;1.08;;
48552;SDS011;34335;51.566;6.994;2023-02-19T18:38:48;0.90;;;0.65;;
48552;SDS011;34335;51.566;6.994;2023-02-19T18:41:14;1.10;;;0.60;;
48552;SDS011;34335;51.566;6.994;2023-02-19T18:43:42;1.80;;;0.55;;
48552;SDS011;34335;51.566;6.994;2023-02-19T18:46:08;2.20;;;1.00;;
48552;SDS011;34335;51.566;6.994;2023-02-19T18:48:34;1.95;;;0.82;;
48552;SDS011;34335;51.566;6.994;2023-02-19T18:51:00;2.50;;;1.25;;
48552;SDS011;34335;51.566;6.994;2023-02-19T18:53:25;1.23;;;0.70;;
48552;SDS011;34335;51.566;6.994;2023-02-19T18:55:51;5.40;;;1.35;;
48552;SDS011;34335;51.566;6.994;2023-02-19T18:58:16;4.20;;;0.93;;
48552;SDS011;34335;51.566;6.994;2023-02-19T19:00:43;2.00;;;0.85;;
48552;SDS011;34335;51.566;6.994;2023-02-19T19:03:09;2.50;;;1.00;;
48552;SDS011;34335;51.566;6.994;2023-02-19T19:05:34;2.30;;;0.87;;
48552;SDS011;34335;51.566;6.994;2023-02-19T19:07:59;2.30;;;1.23;;
48552;SDS011;34335;51.566;6.994;2023-02-19T19:10:26;4.20;;;1.20;;
48552;SDS011;34335;51.566;6.994;2023-02-19T19:12:52;4.65;;;1.33;;
48552;SDS011;34335;51.566;6.994;2023-02-19T19:15:18;3.00;;;1.58;;
48552;SDS011;34335;51.566;6.994;2023-02-19T19:17:44;2.22;;;0.90;;
48552;SDS011;34335;51.566;6.994;2023-02-19T19:20:11;3.10;;;1.35;;
48552;SDS011;34335;51.566;6.994;2023-02-19T19:22:37;2.88;;;1.45;;
48552;SDS011;34335;51.566;6.994;2023-02-19T19:25:02;3.17;;;1.60;;
48552;SDS011;34335;51.566;6.994;2023-02-19T19:27:28;2.35;;;1.40;;
48552;SDS011;34335;51.566;6.994;2023-02-19T19:29:53;3.63;;;1.30;;
48552;SDS011;34335;51.566;6.994;2023-02-19T19:32:19;2.85;;;1.33;;
48552;SDS011;34335;51.566;6.994;2023-02-19T19:34:44;2.88;;;1.33;;
48552;SDS011;34335;51.566;6.994;2023-02-19T19:37:09;2.72;;;1.35;;
48552;SDS011;34335;51.566;6.994;2023-02-19T19:39:35;3.30;;;1.30;;
48552;SDS011;34335;51.566;6.994;2023-02-19T19:42:01;3.38;;;1.48;;
48552;SDS011;34335;51.566;6.994;2023-02-19T19:44:26;3.35;;;1.75;;
48552;SDS011;34335;51.566;6.994;2023-02-19T19:46:51;4.63;;;1.90;;
48552;SDS011;34335;51.566;6.994;2023-02-19T19:49:19;4.20;;;1.40;;
48552;SDS011;34335;51.566;6.994;2023-02-19T19:51:46;3.28;;;1.58;;
48552;SDS011;34335;51.566;6.994;2023-02-19T19:54:12;1.98;;;1.08;;
48552;SDS011;34335;51.566;6.994;2023-02-19T19:56:41;2.72;;;1.15;;
48552;SDS011;34335;51.566;6.994;2023-02-19T19:59:08;3.42;;;1.80;;
48552;SDS011;34335;51.566;6.994;2023-02-19T20:01:35;3.95;;;1.40;;
48552;SDS011;34335;51.566;6.994;2023-02-19T20:04:00;3.08;;;1.35;;
48552;SDS011;34335;51.566;6.994;2023-02-19T20:06:26;2.63;;;1.05;;
48552;SDS011;34335;51.566;6.994;2023-02-19T20:08:53;1.73;;;0.90;;
48552;SDS011;34335;51.566;6.994;2023-02-19T20:11:18;2.47;;;1.17;;
48552;SDS011;34335;51.566;6.994;2023-02-19T20:13:44;2.55;;;1.27;;
48552;SDS011;34335;51.566;6.994;2023-02-19T20:16:09;3.40;;;1.17;;
48552;SDS011;34335;51.566;6.994;2023-02-19T20:18:36;4.20;;;1.88;;
48552;SDS011;34335;51.566;6.994;2023-02-19T20:21:01;6.32;;;2.28;;
48552;SDS011;34335;51.566;6.994;2023-02-19T20:23:27;5.05;;;1.80;;
48552;SDS011;34335;51.566;6.994;2023-02-19T20:25:56;3.05;;;1.20;;
48552;SDS011;34335;51.566;6.994;2023-02-19T20:28:22;4.03;;;1.80;;
48552;SDS011;34335;51.566;6.994;2023-02-19T20:30:47;3.97;;;1.67;;
48552;SDS011;34335;51.566;6.994;2023-02-19T20:33:12;6.80;;;2.20;;
48552;SDS011;34335;51.566;6.994;2023-02-19T20:35:38;3.35;;;1.48;;
48552;SDS011;34335;51.566;6.994;2023-02-19T20:38:03;5.28;;;1.58;;
48552;SDS011;34335;51.566;6.994;2023-02-19T20:40:28;4.23;;;1.40;;
48552;SDS011;34335;51.566;6.994;2023-02-19T20:42:55;4.80;;;1.60;;